Terminal Aerodrome Forecast
Issued by NWS Wakefield, VA

Home | Current Version | Previous Version | Text Only | Print | Product List | Glossary On
Versions: 1 2 3 4 5 6 7 8 9 10 11 12
000
FTUS41 KAKQ 241139
TAFORF
TAF
KORF 241139Z 2412/2512 17004KT P6SM SCT200
     FM241700 15009KT P6SM SCT035
     FM250300 16005KT P6SM SCT060=

USA.gov is the U.S. government's official web portal to all federal, state and local government web resources and services.